METAR AND TAF INFORMATION
METAR FOR UWKD
ADDS - METARS form results

(0417 UTC 26 August 2019)
Data provider http://aviationweather.gov/metar/data/
 
METAR text: UWKD 260400Z 34006MPS CAVOK 12/08 Q1025 R29/CLRD70 NOSIG RMK QFE757/1010
Conditions at: UWKD (KAZAN , RU) observed 0400 UTC 26 August 2019
Temperature: 12.0°C (54°F)
Dewpoint: 8.0°C (46°F) [RH = 76%]
Pressure (altimeter): 30.27 inches Hg (1025.0 mb)
Winds: from the NNW (340 degrees) at 14 MPH (12 knots; 6.2 m/s)
Visibility: 6 or more miles (10+ km)
Ceiling: ceiling and visibility are OK
Clouds: unknown
Weather: no significant weather observed at this time

METAR text: UWKD 260330Z 34004MPS CAVOK 11/08 Q1025 R29/70D NOSIG RMK QFE757/1010
Conditions at: UWKD (KAZAN , RU) observed 0330 UTC 26 August 2019
Temperature: 11.0°C (52°F)
Dewpoint: 8.0°C (46°F) [RH = 82%]
Pressure (altimeter): 30.27 inches Hg (1025.0 mb)
Winds: from the NNW (340 degrees) at 9 MPH (8 knots; 4.1 m/s)
Visibility: 6 or more miles (10+ km)
Ceiling: ceiling and visibility are OK
Clouds: unknown
Weather: no significant weather observed at this time

Forecast for: UWKD (KAZAN , RU)
Text: TAF UWKD 260200Z 2603/2703 32005G10MPS 9999 BKN020 TX18/2611Z TN11/2621Z
Forecast period: 0300 to 1400 UTC 26 August 2019
Forecast type: FROM: standard forecast or significant change
Winds: from the NW (320 degrees) at 12 MPH (10 knots; 5.1 m/s)
gusting to 22 MPH (19 knots; 9.8 m/s)
Visibility: 6 or more miles 10+ km)
Ceiling: 2000 feet AGL
Clouds: broken clouds at 2000 feet AGL
Weather: no significant weather forecast for this period
Text: BECMG 2614/2616 26003MPS BKN030
Forecast period: 1400 UTC 26 August 2019 to 0300 UTC 27 August 2019
Forecast type: BECOMING: Conditions expected to become as follows by 1600 UTC 26 August 2019
Winds: from the W (260 degrees) at 7 MPH (6 knots; 3.1 m/s)
Visibility: 6 or more miles 10+ km)
Ceiling: 3000 feet AGL
Clouds: broken clouds at 3000 feet AGL
Weather: no significant weather forecast for this period
Text: TEMPO 2621/2703 25006G12MPS 5000 -SHRA BR BKN015 BKN030CB
Forecast period: 2100 UTC 26 August 2019 to 0300 UTC 27 August 2019
Forecast type: TEMPORARY: The following changes expected for less than half the time period
Winds: from the WSW (250 degrees) at 14 MPH (12 knots; 6.2 m/s)
gusting to 26 MPH (23 knots; 11.8 m/s)
Visibility: 3 miles (5 km)
Ceiling: 1500 feet AGL
Clouds: broken clouds at 1500 feet AGL
broken clouds at 3000 feet AGL
Weather: -SHRA BR  (light rain showers, mist)

 AIRPORT MAP

 RUNWAY INFORMATION

 AIRPORT FREQUENCIES
Type ATIS Name ATIS Frequency 126.8 MHZ
Type GND Name TAXIING Frequency 121.7 MHZ
Type RDR Name RADAR Frequency 119.4 MHZ
Type TWR Name TWR Frequency 120.3 MHZ

 AIRPORT NEAR NAVIGATION AIDS
Type NDB Name Kazan Frequency 475 KHZ
Type NDB Name Kazan Frequency 475 KHZ
Type NDB Name Kazan Frequency 292 KHZ
Type VOR-DME Name Kazan Frequency 112700 KHZ
Type NDB Name Kazan Frequency 292 KHZ



2018 Air Astana Virtual Airline